createdAt,value
2023-09-06T00:01:35.431Z,2.90
2023-09-06T00:06:36.787Z,3.20
2023-09-06T00:11:38.150Z,2.78
2023-09-06T00:16:39.602Z,3.25
2023-09-06T00:21:42.058Z,3.20
2023-09-06T00:26:44.884Z,3.40
2023-09-06T00:31:46.764Z,3.63
2023-09-06T00:36:48.167Z,3.17
2023-09-06T00:41:49.574Z,3.20
2023-09-06T00:46:50.958Z,3.00
2023-09-06T00:51:52.445Z,2.58
2023-09-06T00:56:54.670Z,3.60
2023-09-06T01:01:56.435Z,3.13
2023-09-06T01:06:58.779Z,3.15
2023-09-06T01:12:00.283Z,3.33
2023-09-06T01:17:01.807Z,3.10
2023-09-06T01:22:21.141Z,3.67
2023-09-06T01:27:22.414Z,3.05
2023-09-06T01:32:23.786Z,3.53
2023-09-06T01:37:25.088Z,3.45
2023-09-06T01:42:28.007Z,3.40
2023-09-06T01:47:29.357Z,3.03
2023-09-06T01:52:30.801Z,3.38
2023-09-06T01:57:32.133Z,3.50
2023-09-06T02:02:33.508Z,3.30
2023-09-06T02:07:34.864Z,3.50
2023-09-06T02:12:36.274Z,3.35
2023-09-06T02:17:38.113Z,3.20
2023-09-06T02:22:42.260Z,3.50
2023-09-06T02:27:43.658Z,3.17
2023-09-06T02:32:45.229Z,3.55
2023-09-06T02:37:46.657Z,3.27
2023-09-06T02:42:50.165Z,3.80
2023-09-06T02:47:52.184Z,3.50
2023-09-06T02:52:54.936Z,3.40
2023-09-06T02:57:58.012Z,3.88
2023-09-06T03:03:06.176Z,3.55
2023-09-06T03:08:08.250Z,3.60
2023-09-06T03:13:12.540Z,3.77
2023-09-06T03:18:14.153Z,4.07
2023-09-06T03:23:19.472Z,3.90
2023-09-06T03:28:22.377Z,3.87
2023-09-06T03:33:23.754Z,3.97
2023-09-06T03:38:27.505Z,3.90
2023-09-06T03:43:34.156Z,3.50
2023-09-06T03:48:37.041Z,3.80
2023-09-06T03:53:39.275Z,3.77
2023-09-06T03:58:42.321Z,3.63
2023-09-06T04:03:43.795Z,3.58
2023-09-06T04:08:45.546Z,4.30
2023-09-06T04:13:46.923Z,3.60
2023-09-06T04:18:48.216Z,4.00
2023-09-06T04:23:49.854Z,3.83
2023-09-06T04:28:51.307Z,4.33
2023-09-06T04:33:52.692Z,4.57
2023-09-06T04:38:54.281Z,4.00
2023-09-06T04:43:56.418Z,4.55
2023-09-06T04:48:57.836Z,4.22
2023-09-06T04:53:59.702Z,3.97
2023-09-06T04:59:01.041Z,4.05
2023-09-06T05:04:02.442Z,3.72
2023-09-06T05:09:03.854Z,4.37
2023-09-06T05:14:05.179Z,4.30
2023-09-06T05:19:06.706Z,3.90
2023-09-06T05:24:08.068Z,4.83
2023-09-06T05:29:09.393Z,4.55
2023-09-06T05:34:10.797Z,4.30
2023-09-06T05:39:13.708Z,4.30
2023-09-06T05:44:15.067Z,4.75
2023-09-06T05:49:16.435Z,4.50
2023-09-06T05:54:17.761Z,4.40
2023-09-06T05:59:20.352Z,4.38
2023-09-06T06:04:21.877Z,4.13
2023-09-06T06:09:25.944Z,4.40
2023-09-06T06:14:29.329Z,4.00
2023-09-06T06:19:30.853Z,4.17
2023-09-06T06:24:34.283Z,3.97
2023-09-06T06:29:35.785Z,4.40
2023-09-06T06:34:40.309Z,4.40
2023-09-06T06:39:43.229Z,4.47
2023-09-06T06:44:47.840Z,4.50
2023-09-06T06:49:52.707Z,5.03
2023-09-06T06:54:54.057Z,5.10
2023-09-06T06:59:55.410Z,5.07
2023-09-06T07:04:58.904Z,4.53
2023-09-06T07:10:00.253Z,3.80
2023-09-06T07:15:01.645Z,3.90
2023-09-06T07:20:06.203Z,4.60
2023-09-06T07:25:09.228Z,4.50
2023-09-06T07:30:10.959Z,4.00
2023-09-06T07:35:13.286Z,4.78
2023-09-06T07:40:14.711Z,4.20
2023-09-06T07:45:16.073Z,4.50
2023-09-06T07:50:17.495Z,4.20
2023-09-06T07:55:19.018Z,4.30
2023-09-06T08:00:20.549Z,4.20
2023-09-06T08:05:21.867Z,4.05
2023-09-06T08:10:23.176Z,4.97
2023-09-06T08:15:24.510Z,4.17
2023-09-06T08:20:25.957Z,4.28
2023-09-06T08:25:27.372Z,4.25
2023-09-06T08:30:28.949Z,4.33
2023-09-06T08:35:30.328Z,4.70
2023-09-06T08:40:31.702Z,4.47
2023-09-06T08:45:33.572Z,4.50
2023-09-06T08:50:36.899Z,4.40
2023-09-06T08:55:38.364Z,5.43
2023-09-06T09:00:40.643Z,4.97
2023-09-06T09:05:42.121Z,4.90
2023-09-06T09:10:43.467Z,4.78
2023-09-06T09:15:44.827Z,4.88
2023-09-06T09:20:47.130Z,5.00
2023-09-06T09:25:49.567Z,4.57
2023-09-06T09:30:51.884Z,4.55
2023-09-06T09:35:53.303Z,4.60
2023-09-06T09:41:06.857Z,5.93
2023-09-06T09:46:09.428Z,4.90
2023-09-06T09:51:17.160Z,4.40
2023-09-06T09:56:23.010Z,4.33
2023-09-06T10:01:24.316Z,4.63
2023-09-06T10:06:27.373Z,4.15
2023-09-06T10:11:30.801Z,4.30
2023-09-06T10:16:35.185Z,4.50
2023-09-06T10:21:37.096Z,4.40
2023-09-06T10:26:41.146Z,4.40
2023-09-06T10:31:49.471Z,4.33
2023-09-06T10:37:01.872Z,4.20
2023-09-06T10:42:09.868Z,4.47
2023-09-06T10:47:27.391Z,4.60
2023-09-06T10:52:45.606Z,3.90
2023-09-06T10:58:01.926Z,4.13
2023-09-06T11:03:09.463Z,4.10
2023-09-06T11:08:21.497Z,4.20
2023-09-06T11:13:29.490Z,3.85
2023-09-06T11:18:34.624Z,4.53
2023-09-06T11:23:49.185Z,3.80
2023-09-06T11:28:59.889Z,4.28
2023-09-06T11:34:05.634Z,4.30
2023-09-06T11:39:19.999Z,4.33
2023-09-06T11:44:24.304Z,4.22
2023-09-06T11:49:27.008Z,3.80
2023-09-06T11:54:31.108Z,4.07
2023-09-06T11:59:33.479Z,4.40
2023-09-06T12:04:35.913Z,4.00
2023-09-06T12:09:37.722Z,4.25
2023-09-06T12:14:43.027Z,3.87
2023-09-06T12:19:45.200Z,3.80
2023-09-06T12:24:48.638Z,3.83
2023-09-06T12:29:50.000Z,4.30
2023-09-06T12:34:51.402Z,4.15
2023-09-06T12:39:53.647Z,4.22
2023-09-06T12:44:55.234Z,3.90
2023-09-06T12:49:56.912Z,4.00
2023-09-06T12:54:58.291Z,4.20
2023-09-06T13:00:00.104Z,3.88
2023-09-06T13:05:05.292Z,4.10
2023-09-06T13:10:07.326Z,4.10
2023-09-06T13:15:09.451Z,3.85
2023-09-06T13:20:11.912Z,4.23
2023-09-06T13:25:13.619Z,4.00
2023-09-06T13:30:15.192Z,4.20
2023-09-06T13:35:16.589Z,4.13
2023-09-06T13:40:18.719Z,4.10
2023-09-06T13:45:21.374Z,4.03
2023-09-06T13:50:22.765Z,4.20
2023-09-06T13:55:24.116Z,3.90
2023-09-06T14:00:25.483Z,3.72
2023-09-06T14:05:26.782Z,3.67
2023-09-06T14:10:28.092Z,4.10
2023-09-06T14:15:29.425Z,4.00
2023-09-06T14:20:33.047Z,4.07
2023-09-06T14:25:35.264Z,4.23
2023-09-06T14:30:40.425Z,4.20
2023-09-06T14:35:42.371Z,4.03
2023-09-06T14:40:44.445Z,3.83
2023-09-06T14:45:45.743Z,3.80
2023-09-06T14:50:47.144Z,4.10
2023-09-06T14:55:48.931Z,4.10
2023-09-06T15:00:50.327Z,3.83
2023-09-06T15:05:51.734Z,3.92
2023-09-06T15:10:53.034Z,4.10
2023-09-06T15:15:54.949Z,4.00
2023-09-06T15:20:56.753Z,3.67
2023-09-06T15:25:59.341Z,3.55
2023-09-06T15:31:00.756Z,3.90
2023-09-06T15:36:08.767Z,3.70
2023-09-06T15:41:14.981Z,3.40
2023-09-06T15:46:16.363Z,3.80
2023-09-06T15:51:18.317Z,3.70
2023-09-06T15:56:20.498Z,3.33
2023-09-06T16:01:22.389Z,3.50
2023-09-06T16:06:26.864Z,3.10
2023-09-06T16:11:28.600Z,3.73
2023-09-06T16:16:29.966Z,3.80
2023-09-06T16:21:33.502Z,3.33
2023-09-06T16:26:35.413Z,3.47
2023-09-06T16:31:36.938Z,2.95
2023-09-06T16:36:38.294Z,3.30
2023-09-06T16:41:39.662Z,3.33
2023-09-06T16:46:41.095Z,3.40
2023-09-06T16:51:42.496Z,3.30
2023-09-06T16:56:43.805Z,3.10
2023-09-06T17:01:45.220Z,3.47
2023-09-06T17:06:47.221Z,3.47
2023-09-06T17:11:48.609Z,3.25
2023-09-06T17:16:50.059Z,3.17
2023-09-06T17:21:51.438Z,3.50
2023-09-06T17:26:54.037Z,3.40
2023-09-06T17:31:55.729Z,3.40
2023-09-06T17:36:57.962Z,3.83
2023-09-06T17:42:01.848Z,3.42
2023-09-06T17:47:03.564Z,3.47
2023-09-06T17:52:06.812Z,3.40
2023-09-06T17:57:09.063Z,3.88
2023-09-06T18:02:10.645Z,3.55
2023-09-06T18:07:13.322Z,3.40
2023-09-06T18:12:14.655Z,3.80
2023-09-06T18:17:16.909Z,3.70
2023-09-06T18:22:18.266Z,3.40
2023-09-06T18:27:20.621Z,3.22
2023-09-06T18:32:21.994Z,3.25
2023-09-06T18:37:23.375Z,3.20
2023-09-06T18:42:24.720Z,3.60
2023-09-06T18:47:26.378Z,3.72
2023-09-06T18:52:27.817Z,3.20
2023-09-06T18:57:29.169Z,3.13
2023-09-06T19:02:30.838Z,3.25
2023-09-06T19:07:32.311Z,3.53
2023-09-06T19:12:35.782Z,3.47
2023-09-06T19:17:38.012Z,3.60
2023-09-06T19:22:39.904Z,3.58
2023-09-06T19:27:41.809Z,3.27
2023-09-06T19:32:43.177Z,3.57
2023-09-06T19:37:45.250Z,3.42
2023-09-06T19:42:46.730Z,3.50
2023-09-06T19:47:49.373Z,3.60
2023-09-06T19:52:51.627Z,3.92
2023-09-06T19:57:53.046Z,3.70
2023-09-06T20:02:54.691Z,3.40
2023-09-06T20:07:56.137Z,3.45
2023-09-06T20:12:57.462Z,3.53
2023-09-06T20:17:58.874Z,3.90
2023-09-06T20:23:00.274Z,3.77
2023-09-06T20:28:01.596Z,4.00
2023-09-06T20:33:04.351Z,3.45
2023-09-06T20:38:05.802Z,3.67
2023-09-06T20:43:07.313Z,4.13
2023-09-06T20:48:09.568Z,3.70
2023-09-06T20:53:10.947Z,3.90
2023-09-06T20:58:12.843Z,3.92
2023-09-06T21:03:14.244Z,4.03
2023-09-06T21:08:15.620Z,3.90
2023-09-06T21:13:17.003Z,4.05
2023-09-06T21:18:18.473Z,3.67
2023-09-06T21:23:19.824Z,3.83
2023-09-06T21:28:21.164Z,3.90
2023-09-06T21:33:22.560Z,3.85
2023-09-06T21:38:24.020Z,4.40
2023-09-06T21:43:25.474Z,4.33
2023-09-06T21:48:27.119Z,4.00
2023-09-06T21:53:28.511Z,3.70
2023-09-06T21:58:30.363Z,4.10
2023-09-06T22:03:32.478Z,4.05
2023-09-06T22:08:34.049Z,4.03
2023-09-06T22:13:35.468Z,4.40
2023-09-06T22:18:36.858Z,4.40
2023-09-06T22:23:39.154Z,4.30
2023-09-06T22:28:40.590Z,4.38
2023-09-06T22:33:41.938Z,4.50
2023-09-06T22:38:43.524Z,4.22
2023-09-06T22:43:44.854Z,3.78
2023-09-06T22:48:54.493Z,4.10
2023-09-06T22:53:56.826Z,3.90
2023-09-06T22:58:58.211Z,4.15
2023-09-06T23:03:59.588Z,4.00
2023-09-06T23:09:01.553Z,3.93
2023-09-06T23:14:06.330Z,4.30
2023-09-06T23:19:08.685Z,3.67
2023-09-06T23:24:13.192Z,4.33
2023-09-06T23:29:17.537Z,4.22
2023-09-06T23:34:23.033Z,4.30
2023-09-06T23:39:28.660Z,4.07
2023-09-06T23:44:29.965Z,4.35
2023-09-06T23:49:33.006Z,4.05
2023-09-06T23:54:46.396Z,3.70
2023-09-06T23:59:49.697Z,3.95
